sensor_id;sensor_type;location;lat;lon;timestamp;temperature;humidity
17948;DHT22;9099;47.958;11.366;2022-09-25T00:01:27;12.20;99.90
17948;DHT22;9099;47.958;11.366;2022-09-25T00:03:54;12.20;99.90
17948;DHT22;9099;47.958;11.366;2022-09-25T00:06:22;12.20;99.90
17948;DHT22;9099;47.958;11.366;2022-09-25T00:08:50;12.20;99.90
17948;DHT22;9099;47.958;11.366;2022-09-25T00:11:19;12.20;99.90
17948;DHT22;9099;47.958;11.366;2022-09-25T00:13:46;12.20;99.90
17948;DHT22;9099;47.958;11.366;2022-09-25T00:16:15;12.30;99.90
17948;DHT22;9099;47.958;11.366;2022-09-25T00:18:43;12.30;99.90
17948;DHT22;9099;47.958;11.366;2022-09-25T00:21:29;12.30;99.90
17948;DHT22;9099;47.958;11.366;2022-09-25T00:23:56;12.30;99.90
17948;DHT22;9099;47.958;11.366;2022-09-25T00:26:25;12.30;99.90
17948;DHT22;9099;47.958;11.366;2022-09-25T00:28:53;12.30;99.90
17948;DHT22;9099;47.958;11.366;2022-09-25T00:31:22;12.30;99.90
17948;DHT22;9099;47.958;11.366;2022-09-25T00:33:51;12.30;99.90
17948;DHT22;9099;47.958;11.366;2022-09-25T00:36:19;12.30;99.90
17948;DHT22;9099;47.958;11.366;2022-09-25T00:38:46;12.30;99.90
17948;DHT22;9099;47.958;11.366;2022-09-25T00:41:19;12.40;99.90
17948;DHT22;9099;47.958;11.366;2022-09-25T00:43:47;12.40;99.90
17948;DHT22;9099;47.958;11.366;2022-09-25T00:46:17;12.30;99.90
17948;DHT22;9099;47.958;11.366;2022-09-25T00:48:48;12.30;99.90
17948;DHT22;9099;47.958;11.366;2022-09-25T00:51:20;12.30;99.90
17948;DHT22;9099;47.958;11.366;2022-09-25T00:53:49;12.30;99.90
17948;DHT22;9099;47.958;11.366;2022-09-25T00:56:16;12.30;99.90
17948;DHT22;9099;47.958;11.366;2022-09-25T00:58:43;12.20;99.90
17948;DHT22;9099;47.958;11.366;2022-09-25T01:01:10;12.20;99.90
17948;DHT22;9099;47.958;11.366;2022-09-25T01:03:39;12.20;99.90
17948;DHT22;9099;47.958;11.366;2022-09-25T01:06:06;12.20;99.90
17948;DHT22;9099;47.958;11.366;2022-09-25T01:08:37;12.20;99.90
17948;DHT22;9099;47.958;11.366;2022-09-25T01:11:04;12.20;99.90
17948;DHT22;9099;47.958;11.366;2022-09-25T01:13:31;12.20;99.90
17948;DHT22;9099;47.958;11.366;2022-09-25T01:16:04;12.20;99.90
17948;DHT22;9099;47.958;11.366;2022-09-25T01:18:46;12.10;99.90
17948;DHT22;9099;47.958;11.366;2022-09-25T01:21:26;12.00;99.90
17948;DHT22;9099;47.958;11.366;2022-09-25T01:24:16;12.00;99.90
17948;DHT22;9099;47.958;11.366;2022-09-25T01:27:10;12.00;99.90
17948;DHT22;9099;47.958;11.366;2022-09-25T01:29:45;12.00;99.90
17948;DHT22;9099;47.958;11.366;2022-09-25T01:32:18;12.00;99.90
17948;DHT22;9099;47.958;11.366;2022-09-25T01:34:51;12.10;99.90
17948;DHT22;9099;47.958;11.366;2022-09-25T01:37:25;12.00;99.90
17948;DHT22;9099;47.958;11.366;2022-09-25T01:40:01;11.90;99.90
17948;DHT22;9099;47.958;11.366;2022-09-25T01:42:39;11.90;99.90
17948;DHT22;9099;47.958;11.366;2022-09-25T01:45:14;11.90;99.90
17948;DHT22;9099;47.958;11.366;2022-09-25T01:47:46;11.90;99.90
17948;DHT22;9099;47.958;11.366;2022-09-25T01:50:18;11.80;99.90
17948;DHT22;9099;47.958;11.366;2022-09-25T01:52:48;11.70;99.90
17948;DHT22;9099;47.958;11.366;2022-09-25T01:55:20;11.70;99.90
17948;DHT22;9099;47.958;11.366;2022-09-25T01:57:52;11.70;99.90
17948;DHT22;9099;47.958;11.366;2022-09-25T02:00:24;11.60;99.90
17948;DHT22;9099;47.958;11.366;2022-09-25T02:02:54;11.60;99.90
17948;DHT22;9099;47.958;11.366;2022-09-25T02:05:26;11.60;99.90
17948;DHT22;9099;47.958;11.366;2022-09-25T02:07:57;11.60;99.90
17948;DHT22;9099;47.958;11.366;2022-09-25T02:10:29;11.60;99.90
17948;DHT22;9099;47.958;11.366;2022-09-25T02:13:01;11.60;99.90
17948;DHT22;9099;47.958;11.366;2022-09-25T02:15:33;11.60;99.90
17948;DHT22;9099;47.958;11.366;2022-09-25T02:18:03;11.60;99.90
17948;DHT22;9099;47.958;11.366;2022-09-25T02:20:51;11.60;99.90
17948;DHT22;9099;47.958;11.366;2022-09-25T02:23:22;11.60;99.90
17948;DHT22;9099;47.958;11.366;2022-09-25T02:25:55;11.60;99.90
17948;DHT22;9099;47.958;11.366;2022-09-25T02:28:25;11.60;99.90
17948;DHT22;9099;47.958;11.366;2022-09-25T02:30:55;11.50;99.90
17948;DHT22;9099;47.958;11.366;2022-09-25T02:33:23;11.60;99.90
17948;DHT22;9099;47.958;11.366;2022-09-25T02:35:50;11.70;99.90
17948;DHT22;9099;47.958;11.366;2022-09-25T02:38:18;11.70;99.90
17948;DHT22;9099;47.958;11.366;2022-09-25T02:40:50;11.80;99.90
17948;DHT22;9099;47.958;11.366;2022-09-25T02:43:28;11.70;99.90
17948;DHT22;9099;47.958;11.366;2022-09-25T02:46:06;11.70;99.90
17948;DHT22;9099;47.958;11.366;2022-09-25T02:48:43;11.70;99.90
17948;DHT22;9099;47.958;11.366;2022-09-25T02:51:23;11.70;99.90
17948;DHT22;9099;47.958;11.366;2022-09-25T02:53:57;11.70;99.90
17948;DHT22;9099;47.958;11.366;2022-09-25T02:56:30;11.60;99.90
17948;DHT22;9099;47.958;11.366;2022-09-25T02:59:02;11.50;99.90
17948;DHT22;9099;47.958;11.366;2022-09-25T03:01:34;11.50;99.90
17948;DHT22;9099;47.958;11.366;2022-09-25T03:04:03;11.60;99.90
17948;DHT22;9099;47.958;11.366;2022-09-25T03:06:31;11.60;99.90
17948;DHT22;9099;47.958;11.366;2022-09-25T03:08:59;11.70;99.90
17948;DHT22;9099;47.958;11.366;2022-09-25T03:11:26;11.70;99.90
17948;DHT22;9099;47.958;11.366;2022-09-25T03:13:57;11.80;99.90
17948;DHT22;9099;47.958;11.366;2022-09-25T03:16:32;11.80;99.90
17948;DHT22;9099;47.958;11.366;2022-09-25T03:19:00;11.80;99.90
17948;DHT22;9099;47.958;11.366;2022-09-25T03:21:27;11.90;99.90
17948;DHT22;9099;47.958;11.366;2022-09-25T03:23:53;11.90;99.90
17948;DHT22;9099;47.958;11.366;2022-09-25T03:26:22;11.90;99.90
17948;DHT22;9099;47.958;11.366;2022-09-25T03:28:49;11.90;99.90
17948;DHT22;9099;47.958;11.366;2022-09-25T03:31:16;12.00;99.90
17948;DHT22;9099;47.958;11.366;2022-09-25T03:33:45;12.10;99.90
17948;DHT22;9099;47.958;11.366;2022-09-25T03:36:13;12.10;99.90
17948;DHT22;9099;47.958;11.366;2022-09-25T03:38:41;12.10;99.90
17948;DHT22;9099;47.958;11.366;2022-09-25T03:41:09;12.10;99.90
17948;DHT22;9099;47.958;11.366;2022-09-25T03:43:38;12.10;99.90
17948;DHT22;9099;47.958;11.366;2022-09-25T03:46:07;12.10;99.90
17948;DHT22;9099;47.958;11.366;2022-09-25T03:48:34;12.00;99.90
17948;DHT22;9099;47.958;11.366;2022-09-25T03:51:03;11.80;99.90
17948;DHT22;9099;47.958;11.366;2022-09-25T03:53:31;11.80;99.90
17948;DHT22;9099;47.958;11.366;2022-09-25T03:55:58;11.80;99.90
17948;DHT22;9099;47.958;11.366;2022-09-25T03:58:26;11.70;99.90
17948;DHT22;9099;47.958;11.366;2022-09-25T04:00:53;11.70;99.90
17948;DHT22;9099;47.958;11.366;2022-09-25T04:03:22;11.70;99.90
17948;DHT22;9099;47.958;11.366;2022-09-25T04:05:49;11.70;99.90
17948;DHT22;9099;47.958;11.366;2022-09-25T04:08:17;11.60;99.90
17948;DHT22;9099;47.958;11.366;2022-09-25T04:10:44;11.60;99.90
17948;DHT22;9099;47.958;11.366;2022-09-25T04:13:11;11.70;99.90
17948;DHT22;9099;47.958;11.366;2022-09-25T04:15:38;11.70;99.90
17948;DHT22;9099;47.958;11.366;2022-09-25T04:18:05;11.70;99.90
17948;DHT22;9099;47.958;11.366;2022-09-25T04:20:32;11.70;99.90
17948;DHT22;9099;47.958;11.366;2022-09-25T04:22:59;11.70;99.90
17948;DHT22;9099;47.958;11.366;2022-09-25T04:25:27;11.70;99.90
17948;DHT22;9099;47.958;11.366;2022-09-25T04:27:55;11.70;99.90
17948;DHT22;9099;47.958;11.366;2022-09-25T04:30:23;11.70;99.90
17948;DHT22;9099;47.958;11.366;2022-09-25T04:32:50;11.80;99.90
17948;DHT22;9099;47.958;11.366;2022-09-25T04:35:34;11.80;99.90
17948;DHT22;9099;47.958;11.366;2022-09-25T04:38:02;11.80;99.90
17948;DHT22;9099;47.958;11.366;2022-09-25T04:40:31;11.80;99.90
17948;DHT22;9099;47.958;11.366;2022-09-25T04:42:59;11.80;99.90
17948;DHT22;9099;47.958;11.366;2022-09-25T04:45:27;11.80;99.90
17948;DHT22;9099;47.958;11.366;2022-09-25T04:47:55;11.70;99.90
17948;DHT22;9099;47.958;11.366;2022-09-25T04:50:22;11.60;99.90
17948;DHT22;9099;47.958;11.366;2022-09-25T04:52:49;11.50;99.90
17948;DHT22;9099;47.958;11.366;2022-09-25T04:55:16;11.50;99.90
17948;DHT22;9099;47.958;11.366;2022-09-25T04:57:45;11.50;99.90
17948;DHT22;9099;47.958;11.366;2022-09-25T05:00:17;11.60;99.90
17948;DHT22;9099;47.958;11.366;2022-09-25T05:02:44;11.60;99.90
17948;DHT22;9099;47.958;11.366;2022-09-25T05:05:11;11.60;99.90
17948;DHT22;9099;47.958;11.366;2022-09-25T05:07:38;11.60;99.90
17948;DHT22;9099;47.958;11.366;2022-09-25T05:10:06;11.60;99.90
17948;DHT22;9099;47.958;11.366;2022-09-25T05:12:33;11.60;99.90
17948;DHT22;9099;47.958;11.366;2022-09-25T05:15:02;11.70;99.90
17948;DHT22;9099;47.958;11.366;2022-09-25T05:17:29;11.70;99.90
17948;DHT22;9099;47.958;11.366;2022-09-25T05:19:55;11.80;99.90
17948;DHT22;9099;47.958;11.366;2022-09-25T05:22:22;11.80;99.90
17948;DHT22;9099;47.958;11.366;2022-09-25T05:24:49;11.80;99.90
17948;DHT22;9099;47.958;11.366;2022-09-25T05:27:17;11.80;99.90
17948;DHT22;9099;47.958;11.366;2022-09-25T05:29:43;11.80;99.90
17948;DHT22;9099;47.958;11.366;2022-09-25T05:32:11;11.80;99.90
17948;DHT22;9099;47.958;11.366;2022-09-25T05:34:38;11.80;99.90
17948;DHT22;9099;47.958;11.366;2022-09-25T05:37:05;11.80;99.90
17948;DHT22;9099;47.958;11.366;2022-09-25T05:39:32;11.80;99.90
17948;DHT22;9099;47.958;11.366;2022-09-25T05:41:59;11.80;99.90
17948;DHT22;9099;47.958;11.366;2022-09-25T05:44:27;11.80;99.90
17948;DHT22;9099;47.958;11.366;2022-09-25T05:46:54;11.80;99.90
17948;DHT22;9099;47.958;11.366;2022-09-25T05:49:22;11.80;99.90
17948;DHT22;9099;47.958;11.366;2022-09-25T05:51:49;11.80;99.90
17948;DHT22;9099;47.958;11.366;2022-09-25T05:54:16;11.80;99.90
17948;DHT22;9099;47.958;11.366;2022-09-25T05:56:43;11.80;99.90
17948;DHT22;9099;47.958;11.366;2022-09-25T05:59:10;11.80;99.90
17948;DHT22;9099;47.958;11.366;2022-09-25T06:01:37;11.90;99.90
17948;DHT22;9099;47.958;11.366;2022-09-25T06:04:05;12.00;99.90
17948;DHT22;9099;47.958;11.366;2022-09-25T06:06:33;12.00;99.90
17948;DHT22;9099;47.958;11.366;2022-09-25T06:09:00;12.00;99.90
17948;DHT22;9099;47.958;11.366;2022-09-25T06:11:27;12.00;99.90
17948;DHT22;9099;47.958;11.366;2022-09-25T06:13:56;12.10;99.90
17948;DHT22;9099;47.958;11.366;2022-09-25T06:16:22;12.10;99.90
17948;DHT22;9099;47.958;11.366;2022-09-25T06:18:49;12.10;99.90
17948;DHT22;9099;47.958;11.366;2022-09-25T06:21:17;12.10;99.90
17948;DHT22;9099;47.958;11.366;2022-09-25T06:23:45;12.10;99.90
17948;DHT22;9099;47.958;11.366;2022-09-25T06:26:13;12.10;99.90
17948;DHT22;9099;47.958;11.366;2022-09-25T06:28:39;12.10;99.90
17948;DHT22;9099;47.958;11.366;2022-09-25T06:31:06;12.10;99.90
17948;DHT22;9099;47.958;11.366;2022-09-25T06:33:33;12.20;99.90
17948;DHT22;9099;47.958;11.366;2022-09-25T06:36:00;12.80;99.90
17948;DHT22;9099;47.958;11.366;2022-09-25T06:38:27;13.40;99.90
17948;DHT22;9099;47.958;11.366;2022-09-25T06:40:57;13.70;99.90
17948;DHT22;9099;47.958;11.366;2022-09-25T06:43:24;13.90;99.90
17948;DHT22;9099;47.958;11.366;2022-09-25T06:45:51;14.00;99.90
17948;DHT22;9099;47.958;11.366;2022-09-25T06:48:18;13.80;99.90
17948;DHT22;9099;47.958;11.366;2022-09-25T06:50:48;13.60;99.90
17948;DHT22;9099;47.958;11.366;2022-09-25T06:53:17;13.40;99.90
17948;DHT22;9099;47.958;11.366;2022-09-25T06:55:45;13.20;99.90
17948;DHT22;9099;47.958;11.366;2022-09-25T06:58:16;13.10;99.90
17948;DHT22;9099;47.958;11.366;2022-09-25T07:00:45;13.10;99.90
17948;DHT22;9099;47.958;11.366;2022-09-25T07:03:12;13.10;99.90
17948;DHT22;9099;47.958;11.366;2022-09-25T07:05:59;13.20;99.90
17948;DHT22;9099;47.958;11.366;2022-09-25T07:08:26;13.30;99.90
17948;DHT22;9099;47.958;11.366;2022-09-25T07:10:54;13.40;99.90
17948;DHT22;9099;47.958;11.366;2022-09-25T07:13:24;13.40;99.90
17948;DHT22;9099;47.958;11.366;2022-09-25T07:15:51;13.50;99.90
17948;DHT22;9099;47.958;11.366;2022-09-25T07:18:18;13.50;99.90
17948;DHT22;9099;47.958;11.366;2022-09-25T07:20:45;13.30;99.90
17948;DHT22;9099;47.958;11.366;2022-09-25T07:23:12;13.20;99.90
17948;DHT22;9099;47.958;11.366;2022-09-25T07:25:39;13.10;99.90
17948;DHT22;9099;47.958;11.366;2022-09-25T07:28:06;13.30;99.90
17948;DHT22;9099;47.958;11.366;2022-09-25T07:30:35;13.40;99.90
17948;DHT22;9099;47.958;11.366;2022-09-25T07:33:02;13.60;99.90
17948;DHT22;9099;47.958;11.366;2022-09-25T07:35:29;13.70;99.90
17948;DHT22;9099;47.958;11.366;2022-09-25T07:37:56;13.70;99.90
17948;DHT22;9099;47.958;11.366;2022-09-25T07:40:23;13.80;99.90
17948;DHT22;9099;47.958;11.366;2022-09-25T07:42:50;14.00;99.90
17948;DHT22;9099;47.958;11.366;2022-09-25T07:45:17;14.10;99.90
17948;DHT22;9099;47.958;11.366;2022-09-25T07:47:45;14.30;99.90
17948;DHT22;9099;47.958;11.366;2022-09-25T07:50:12;14.40;99.90
17948;DHT22;9099;47.958;11.366;2022-09-25T07:52:39;14.50;99.90
17948;DHT22;9099;47.958;11.366;2022-09-25T07:55:07;14.60;99.90
17948;DHT22;9099;47.958;11.366;2022-09-25T07:57:34;14.70;99.90
17948;DHT22;9099;47.958;11.366;2022-09-25T08:00:01;14.80;99.90
17948;DHT22;9099;47.958;11.366;2022-09-25T08:02:29;14.80;99.90
17948;DHT22;9099;47.958;11.366;2022-09-25T08:04:57;14.90;99.90
17948;DHT22;9099;47.958;11.366;2022-09-25T08:07:24;14.90;99.90
17948;DHT22;9099;47.958;11.366;2022-09-25T08:09:51;15.10;99.90
17948;DHT22;9099;47.958;11.366;2022-09-25T08:12:18;15.10;99.90
17948;DHT22;9099;47.958;11.366;2022-09-25T08:14:45;15.20;99.90
17948;DHT22;9099;47.958;11.366;2022-09-25T08:17:12;15.30;99.90
17948;DHT22;9099;47.958;11.366;2022-09-25T08:19:38;15.30;99.90
17948;DHT22;9099;47.958;11.366;2022-09-25T08:22:07;15.30;99.90
17948;DHT22;9099;47.958;11.366;2022-09-25T08:24:33;15.20;99.90
17948;DHT22;9099;47.958;11.366;2022-09-25T08:27:00;15.20;99.90
17948;DHT22;9099;47.958;11.366;2022-09-25T08:29:27;15.20;99.90
17948;DHT22;9099;47.958;11.366;2022-09-25T08:31:55;15.20;99.90
17948;DHT22;9099;47.958;11.366;2022-09-25T08:34:22;15.20;99.90
17948;DHT22;9099;47.958;11.366;2022-09-25T08:36:49;15.30;99.90
17948;DHT22;9099;47.958;11.366;2022-09-25T08:39:17;15.30;99.90
17948;DHT22;9099;47.958;11.366;2022-09-25T08:41:46;15.20;99.90
17948;DHT22;9099;47.958;11.366;2022-09-25T08:44:20;15.40;99.90
17948;DHT22;9099;47.958;11.366;2022-09-25T08:46:51;15.30;99.90
17948;DHT22;9099;47.958;11.366;2022-09-25T08:49:42;15.20;99.90
17948;DHT22;9099;47.958;11.366;2022-09-25T08:52:14;15.10;99.90
17948;DHT22;9099;47.958;11.366;2022-09-25T08:54:43;15.10;99.90
17948;DHT22;9099;47.958;11.366;2022-09-25T08:57:22;15.20;99.90
17948;DHT22;9099;47.958;11.366;2022-09-25T08:59:54;15.40;99.90
17948;DHT22;9099;47.958;11.366;2022-09-25T09:02:25;15.50;99.90
17948;DHT22;9099;47.958;11.366;2022-09-25T09:04:56;15.60;99.90
17948;DHT22;9099;47.958;11.366;2022-09-25T09:07:26;15.80;99.90
17948;DHT22;9099;47.958;11.366;2022-09-25T09:10:01;15.90;99.90
17948;DHT22;9099;47.958;11.366;2022-09-25T09:12:35;15.90;99.90
17948;DHT22;9099;47.958;11.366;2022-09-25T09:15:14;15.80;99.90
17948;DHT22;9099;47.958;11.366;2022-09-25T09:17:41;16.00;99.90
17948;DHT22;9099;47.958;11.366;2022-09-25T09:20:14;16.10;99.90
17948;DHT22;9099;47.958;11.366;2022-09-25T09:22:47;16.40;99.90
17948;DHT22;9099;47.958;11.366;2022-09-25T09:25:25;16.60;99.90
17948;DHT22;9099;47.958;11.366;2022-09-25T09:28:11;16.70;99.90
17948;DHT22;9099;47.958;11.366;2022-09-25T09:30:53;16.80;99.90
17948;DHT22;9099;47.958;11.366;2022-09-25T09:33:39;16.80;99.90
17948;DHT22;9099;47.958;11.366;2022-09-25T09:36:14;16.80;99.90
17948;DHT22;9099;47.958;11.366;2022-09-25T09:38:49;16.80;99.90
17948;DHT22;9099;47.958;11.366;2022-09-25T09:41:39;16.80;99.90
17948;DHT22;9099;47.958;11.366;2022-09-25T09:44:21;16.80;99.90
17948;DHT22;9099;47.958;11.366;2022-09-25T09:46:55;16.60;99.90
17948;DHT22;9099;47.958;11.366;2022-09-25T09:49:28;16.60;99.90
17948;DHT22;9099;47.958;11.366;2022-09-25T09:52:00;16.70;99.90
17948;DHT22;9099;47.958;11.366;2022-09-25T09:54:32;16.80;99.90
17948;DHT22;9099;47.958;11.366;2022-09-25T09:57:08;16.70;99.90
17948;DHT22;9099;47.958;11.366;2022-09-25T09:59:42;16.70;99.90
17948;DHT22;9099;47.958;11.366;2022-09-25T10:02:19;16.90;99.90
17948;DHT22;9099;47.958;11.366;2022-09-25T10:04:51;17.30;99.90
17948;DHT22;9099;47.958;11.366;2022-09-25T10:07:20;17.50;99.90
17948;DHT22;9099;47.958;11.366;2022-09-25T10:09:48;17.70;99.90
17948;DHT22;9099;47.958;11.366;2022-09-25T10:12:32;17.90;99.90
17948;DHT22;9099;47.958;11.366;2022-09-25T10:15:04;18.30;99.90
17948;DHT22;9099;47.958;11.366;2022-09-25T10:17:33;18.50;99.90
17948;DHT22;9099;47.958;11.366;2022-09-25T10:20:11;18.50;99.90
17948;DHT22;9099;47.958;11.366;2022-09-25T10:22:43;18.60;99.90
17948;DHT22;9099;47.958;11.366;2022-09-25T10:25:11;18.40;99.90
17948;DHT22;9099;47.958;11.366;2022-09-25T10:27:40;18.60;99.90
17948;DHT22;9099;47.958;11.366;2022-09-25T10:30:18;18.80;99.90
17948;DHT22;9099;47.958;11.366;2022-09-25T10:32:55;18.90;99.90
17948;DHT22;9099;47.958;11.366;2022-09-25T10:35:25;19.50;99.90
17948;DHT22;9099;47.958;11.366;2022-09-25T10:37:54;20.30;99.90
17948;DHT22;9099;47.958;11.366;2022-09-25T10:40:24;20.90;99.90
17948;DHT22;9099;47.958;11.366;2022-09-25T10:43:04;20.20;99.90
17948;DHT22;9099;47.958;11.366;2022-09-25T10:45:33;20.10;99.90
17948;DHT22;9099;47.958;11.366;2022-09-25T10:48:00;19.80;99.90
17948;DHT22;9099;47.958;11.366;2022-09-25T10:51:05;19.50;99.90
17948;DHT22;9099;47.958;11.366;2022-09-25T10:53:33;19.40;99.90
17948;DHT22;9099;47.958;11.366;2022-09-25T10:56:03;19.60;99.90
17948;DHT22;9099;47.958;11.366;2022-09-25T10:58:35;19.40;99.90
17948;DHT22;9099;47.958;11.366;2022-09-25T11:01:06;19.30;99.90
17948;DHT22;9099;47.958;11.366;2022-09-25T11:03:44;19.30;99.90
17948;DHT22;9099;47.958;11.366;2022-09-25T11:06:17;19.00;99.90
17948;DHT22;9099;47.958;11.366;2022-09-25T11:08:46;19.00;99.90
17948;DHT22;9099;47.958;11.366;2022-09-25T11:11:20;19.10;99.90
17948;DHT22;9099;47.958;11.366;2022-09-25T11:13:54;19.20;99.90
17948;DHT22;9099;47.958;11.366;2022-09-25T11:16:40;19.30;99.90
17948;DHT22;9099;47.958;11.366;2022-09-25T11:19:12;19.60;99.90
17948;DHT22;9099;47.958;11.366;2022-09-25T11:21:44;19.70;99.90
17948;DHT22;9099;47.958;11.366;2022-09-25T11:24:19;20.00;99.90
17948;DHT22;9099;47.958;11.366;2022-09-25T11:26:51;20.30;99.90
17948;DHT22;9099;47.958;11.366;2022-09-25T11:29:24;20.10;99.90
17948;DHT22;9099;47.958;11.366;2022-09-25T11:31:58;20.20;99.90
17948;DHT22;9099;47.958;11.366;2022-09-25T11:34:38;20.60;99.90
17948;DHT22;9099;47.958;11.366;2022-09-25T11:37:17;20.50;99.90
17948;DHT22;9099;47.958;11.366;2022-09-25T11:39:47;20.40;99.90
17948;DHT22;9099;47.958;11.366;2022-09-25T11:42:37;20.20;99.90
17948;DHT22;9099;47.958;11.366;2022-09-25T11:45:17;20.10;99.90
17948;DHT22;9099;47.958;11.366;2022-09-25T11:47:50;20.20;99.90
17948;DHT22;9099;47.958;11.366;2022-09-25T11:50:20;20.10;99.90
17948;DHT22;9099;47.958;11.366;2022-09-25T11:52:56;20.30;99.90
17948;DHT22;9099;47.958;11.366;2022-09-25T11:55:51;20.40;99.90
17948;DHT22;9099;47.958;11.366;2022-09-25T11:58:38;20.40;99.90
17948;DHT22;9099;47.958;11.366;2022-09-25T12:01:18;20.00;99.90
17948;DHT22;9099;47.958;11.366;2022-09-25T12:06:52;20.10;99.90
17948;DHT22;9099;47.958;11.366;2022-09-25T12:09:43;20.20;99.90
17948;DHT22;9099;47.958;11.366;2022-09-25T12:12:18;20.00;99.90
17948;DHT22;9099;47.958;11.366;2022-09-25T12:14:55;19.90;99.90
17948;DHT22;9099;47.958;11.366;2022-09-25T12:17:33;19.80;99.90
17948;DHT22;9099;47.958;11.366;2022-09-25T12:20:08;19.70;99.90
17948;DHT22;9099;47.958;11.366;2022-09-25T12:22:48;19.60;99.90
17948;DHT22;9099;47.958;11.366;2022-09-25T12:25:27;19.40;99.90
17948;DHT22;9099;47.958;11.366;2022-09-25T12:28:03;19.30;99.90
17948;DHT22;9099;47.958;11.366;2022-09-25T12:30:37;19.20;99.90
17948;DHT22;9099;47.958;11.366;2022-09-25T12:33:21;19.00;99.90
17948;DHT22;9099;47.958;11.366;2022-09-25T12:35:53;18.90;99.90
17948;DHT22;9099;47.958;11.366;2022-09-25T12:38:28;18.80;99.90
17948;DHT22;9099;47.958;11.366;2022-09-25T12:41:01;18.60;99.90
17948;DHT22;9099;47.958;11.366;2022-09-25T12:43:34;18.50;99.90
17948;DHT22;9099;47.958;11.366;2022-09-25T12:46:08;18.50;99.90
17948;DHT22;9099;47.958;11.366;2022-09-25T12:48:42;18.40;99.90
17948;DHT22;9099;47.958;11.366;2022-09-25T12:51:15;18.30;99.90
17948;DHT22;9099;47.958;11.366;2022-09-25T12:53:46;18.10;99.90
17948;DHT22;9099;47.958;11.366;2022-09-25T12:56:18;18.10;99.90
17948;DHT22;9099;47.958;11.366;2022-09-25T12:58:55;18.00;99.90
17948;DHT22;9099;47.958;11.366;2022-09-25T13:01:28;18.00;99.90
17948;DHT22;9099;47.958;11.366;2022-09-25T13:07:05;17.70;99.90
17948;DHT22;9099;47.958;11.366;2022-09-25T13:09:40;17.50;99.90
17948;DHT22;9099;47.958;11.366;2022-09-25T13:12:09;17.10;99.90
17948;DHT22;9099;47.958;11.366;2022-09-25T13:14:44;16.60;99.90
17948;DHT22;9099;47.958;11.366;2022-09-25T13:17:13;16.30;99.90
17948;DHT22;9099;47.958;11.366;2022-09-25T13:19:41;16.10;99.90
17948;DHT22;9099;47.958;11.366;2022-09-25T13:22:11;15.90;99.90
17948;DHT22;9099;47.958;11.366;2022-09-25T13:24:43;15.80;99.90
17948;DHT22;9099;47.958;11.366;2022-09-25T13:27:15;15.80;99.90
17948;DHT22;9099;47.958;11.366;2022-09-25T13:29:52;15.80;99.90
17948;DHT22;9099;47.958;11.366;2022-09-25T13:32:22;15.80;99.90
17948;DHT22;9099;47.958;11.366;2022-09-25T13:34:55;15.70;99.90
17948;DHT22;9099;47.958;11.366;2022-09-25T13:37:25;15.70;99.90
17948;DHT22;9099;47.958;11.366;2022-09-25T13:39:53;15.70;99.90
17948;DHT22;9099;47.958;11.366;2022-09-25T13:42:40;15.70;99.90
17948;DHT22;9099;47.958;11.366;2022-09-25T13:45:33;15.70;99.90
17948;DHT22;9099;47.958;11.366;2022-09-25T13:48:07;15.80;99.90
17948;DHT22;9099;47.958;11.366;2022-09-25T13:50:41;15.80;99.90
17948;DHT22;9099;47.958;11.366;2022-09-25T13:53:14;15.90;99.90
17948;DHT22;9099;47.958;11.366;2022-09-25T14:02:37;16.00;99.90
17948;DHT22;9099;47.958;11.366;2022-09-25T14:05:06;16.00;99.90
17948;DHT22;9099;47.958;11.366;2022-09-25T14:07:35;16.00;99.90
17948;DHT22;9099;47.958;11.366;2022-09-25T14:10:03;16.00;99.90
17948;DHT22;9099;47.958;11.366;2022-09-25T14:12:37;16.00;99.90
17948;DHT22;9099;47.958;11.366;2022-09-25T14:15:22;16.00;99.90
17948;DHT22;9099;47.958;11.366;2022-09-25T14:17:51;16.00;99.90
17948;DHT22;9099;47.958;11.366;2022-09-25T14:20:35;15.90;99.90
17948;DHT22;9099;47.958;11.366;2022-09-25T14:23:10;15.90;99.90
17948;DHT22;9099;47.958;11.366;2022-09-25T14:25:39;15.80;99.90
17948;DHT22;9099;47.958;11.366;2022-09-25T14:28:19;15.80;99.90
17948;DHT22;9099;47.958;11.366;2022-09-25T14:30:55;15.70;99.90
17948;DHT22;9099;47.958;11.366;2022-09-25T14:33:34;15.70;99.90
17948;DHT22;9099;47.958;11.366;2022-09-25T14:36:12;15.70;99.90
17948;DHT22;9099;47.958;11.366;2022-09-25T14:38:58;15.80;99.90
17948;DHT22;9099;47.958;11.366;2022-09-25T14:41:49;15.90;99.90
17948;DHT22;9099;47.958;11.366;2022-09-25T14:44:47;15.90;99.90
17948;DHT22;9099;47.958;11.366;2022-09-25T14:47:19;15.70;99.90
17948;DHT22;9099;47.958;11.366;2022-09-25T14:49:49;15.60;99.90
17948;DHT22;9099;47.958;11.366;2022-09-25T14:52:20;15.60;99.90
17948;DHT22;9099;47.958;11.366;2022-09-25T14:54:51;15.50;99.90
17948;DHT22;9099;47.958;11.366;2022-09-25T14:57:24;15.40;99.90
17948;DHT22;9099;47.958;11.366;2022-09-25T14:59:54;15.30;99.90
17948;DHT22;9099;47.958;11.366;2022-09-25T15:02:25;15.20;99.90
17948;DHT22;9099;47.958;11.366;2022-09-25T15:04:58;15.40;99.90
17948;DHT22;9099;47.958;11.366;2022-09-25T15:07:25;15.60;99.90
17948;DHT22;9099;47.958;11.366;2022-09-25T15:09:54;15.60;99.90
17948;DHT22;9099;47.958;11.366;2022-09-25T15:12:28;15.70;99.90
17948;DHT22;9099;47.958;11.366;2022-09-25T15:15:04;15.60;99.90
17948;DHT22;9099;47.958;11.366;2022-09-25T15:17:33;15.60;99.90
17948;DHT22;9099;47.958;11.366;2022-09-25T15:20:05;15.60;99.90
17948;DHT22;9099;47.958;11.366;2022-09-25T15:22:35;15.50;99.90
17948;DHT22;9099;47.958;11.366;2022-09-25T15:25:06;15.50;99.90
17948;DHT22;9099;47.958;11.366;2022-09-25T15:27:34;15.40;99.90
17948;DHT22;9099;47.958;11.366;2022-09-25T15:30:13;15.40;99.90
17948;DHT22;9099;47.958;11.366;2022-09-25T15:32:41;15.30;99.90
17948;DHT22;9099;47.958;11.366;2022-09-25T15:35:16;15.30;99.90
17948;DHT22;9099;47.958;11.366;2022-09-25T15:37:44;15.20;99.90
17948;DHT22;9099;47.958;11.366;2022-09-25T15:40:20;15.10;99.90
17948;DHT22;9099;47.958;11.366;2022-09-25T15:42:50;15.00;99.90
17948;DHT22;9099;47.958;11.366;2022-09-25T15:45:34;14.90;99.90
17948;DHT22;9099;47.958;11.366;2022-09-25T15:48:09;14.90;99.90
17948;DHT22;9099;47.958;11.366;2022-09-25T15:50:36;14.80;99.90
17948;DHT22;9099;47.958;11.366;2022-09-25T15:53:18;14.70;99.90
17948;DHT22;9099;47.958;11.366;2022-09-25T15:55:48;14.70;99.90
17948;DHT22;9099;47.958;11.366;2022-09-25T15:58:17;14.70;99.90
17948;DHT22;9099;47.958;11.366;2022-09-25T16:01:00;14.70;99.90
17948;DHT22;9099;47.958;11.366;2022-09-25T16:03:48;14.70;99.90
17948;DHT22;9099;47.958;11.366;2022-09-25T16:06:38;14.70;99.90
17948;DHT22;9099;47.958;11.366;2022-09-25T16:09:27;14.70;99.90
17948;DHT22;9099;47.958;11.366;2022-09-25T16:12:18;14.80;99.90